map of VDA home
VDA - Airport
Location
City:  Eilat, Israel
Name:Ovda International Airport
ICAO:LLOV
IATA:VDA

Details
Type:Airport (Aerodrome, Airfield)
Use:Public/Civil, Military, International (customs port of entry)
Latitude:2956'25"N (29.940250)
Longitude:3456'09"E (34.935850)
Datum:WGS 1984
Elevation:1492 ft (455 m)
Variation:4.55E (WMM2015v2 magnetic declination)
0.08 annual change
Runways:2
Longest:9843 × 148 ft (3000 × 45 m), paved

Time
Time Zone:UTC+2 (DST+3)
Local Time:

Weather
METAR:LLOV 041350Z 08006KT CAVOK 23/03 Q1017
TAF:LLOV 040505Z 0406/0506 VRB05KT CAVOK
BECMG 0408/0410 07006KT PROB40 0410/0417 15006KT
BECMG 0417/0419 VRB04KT TX23/0413Z TN10/0504Z

Related Locations
Nearby:
Farthest:RVV: 11985 mi / 19288 km
Raivavae, Tubuai Islands, Austral Islands, PF

Find:

   beyond  
but within

Other Information
Maps:
NOTAMs:
Links:
Sources:

  
  • flag of Israel
  • flag of Israeli Air Force
  

Sectional Chart

Flight Planning
at skyvector.com

Satellite Image

Google Maps Satellite view

 

Copyright © 2004-2019 Karl L. Swartz. All rights reserved.
The Great Circle Mapper name and logo are trademarks of the Great Circle Mapper.
All other trademarks mentioned herein belong to their respective owners.
Please see credits for attibutions and further copyright information.

  Follow gcmap on Facebook Follow gcmap on Twitter GCmap on LinkedIn

hCard Microformat

Geo Microformat